« Back
NWS Peachtree City, Ga » Text Product » MCN Terminal Aerodrome Forecast


Printer-friendly Version
Current Version              Previous Versions:   1  2  3  4  5  6  7  8  9  

Terminal Aerodrome Forecast

914
FTUS42 KFFC 052334
TAFMCN
TAF
KMCN 052334Z 0600/0624 23006KT P6SM FEW040 SCT100
     FM060800 VRB03KT 4SM BR SCT006 BKN015
     FM061400 26006KT P6SM SCT030
     FM061700 24005KT P6SM BKN040 PROB30 0619/0623 5SM TSRA
      BKN025CB=

USA.gov is the U.S. government's official web portal to all federal, state and local government web resources and services.